Time;durP1;ratioP1;P1;durP2;ratioP2;P2;SDS_P1;SDS_P2;PMS_P1;PMS_P2;Temp;Humidity;BMP_temperature;BMP_pressure;BME280_temperature;BME280_humidity;BME280_pressure;Samples;Min_cycle;Max_cycle;Signal;HPM_P1;HPM_P2
2022/09/09 00:02:39;;;;;;;;;0.00;0.00;;;;;;;;6383565;22;8726;-96
2022/09/09 00:05:27;;;;;;;;;0.25;0.00;;;;;;;;6284033;22;8789;-94
2022/09/09 00:07:54;;;;;;;;;1.00;1.00;;;;;;;;6257267;22;8788;-95
2022/09/09 00:10:19;;;;;;;;;0.00;0.00;;;;;;;;6283566;22;8766;-94
2022/09/09 00:12:44;;;;;;;;;2.00;1.00;;;;;;;;6256218;22;9574;-95
2022/09/09 00:15:16;;;;;;;;;1.00;1.00;;;;;;;;6257117;22;8758;-94
2022/09/09 00:17:54;;;;;;;;;0.50;0.00;;;;;;;;6283211;22;8758;-95
2022/09/09 00:23:28;;;;;;;;;2.25;0.75;;;;;;;;6162353;23;8737;-95
2022/09/09 00:26:15;;;;;;;;;1.50;1.00;;;;;;;;6160585;23;8773;-95
2022/09/09 00:29:09;;;;;;;;;5.75;2.00;;;;;;;;6161143;23;8769;-95
2022/09/09 00:32:05;;;;;;;;;;;;;;;;;;;;;
2022/09/09 00:37:53;;;;;;;;;1.00;0.00;;;;;;;;6159878;23;8887;-95
2022/09/09 00:40:23;;;;;;;;;1.75;1.25;;;;;;;;6161760;23;8751;-94
2022/09/09 00:43:08;;;;;;;;;1.00;1.00;;;;;;;;6160655;23;8858;-96
2022/09/09 00:45:52;;;;;;;;;1.25;1.00;;;;;;;;6162142;23;8770;-96
2022/09/09 00:48:30;;;;;;;;;2.25;0.25;;;;;;;;6161985;23;8786;-96
2022/09/09 00:51:00;;;;;;;;;1.00;0.50;;;;;;;;6161521;23;8758;-94
2022/09/09 00:53:51;;;;;;;;;3.75;2.75;;;;;;;;6166829;23;8847;-96
2022/09/09 00:56:52;;;;;;;;;1.00;1.00;;;;;;;;6159373;23;8753;-95
2022/09/09 00:59:40;;;;;;;;;2.00;0.25;;;;;;;;6116615;23;8749;-95
2022/09/09 01:02:39;;;;;;;;;2.00;2.00;;;;;;;;6145433;23;8762;-95
2022/09/09 01:05:37;;;;;;;;;;;;;;;;;;;;;
2022/09/09 01:08:11;;;;;;;;;1.75;1.75;;;;;;;;6139922;23;35556;-96
2022/09/09 01:10:57;;;;;;;;;2.00;0.25;;;;;;;;6114928;23;8781;-95
2022/09/09 01:13:33;;;;;;;;;2.75;1.25;;;;;;;;6044270;23;8784;-96
2022/09/09 01:16:06;;;;;;;;;1.25;1.25;;;;;;;;6021103;23;8745;-95
2022/09/09 01:19:25;;;;;;;;;3.50;3.00;;;;;;;;6019586;23;8762;-96
2022/09/09 01:25:35;;;;;;;;;2.00;1.50;;;;;;;;5942264;24;8769;-95
2022/09/09 01:28:48;;;;;;;;;;;;;;;;;;;;;
2022/09/09 01:34:18;;;;;;;;;;;;;;;;;;;;;
2022/09/09 01:37:20;;;;;;;;;3.00;1.50;;;;;;;;5933464;24;35287;-96
2022/09/09 01:39:49;;;;;;;;;1.75;1.25;;;;;;;;5957347;23;8688;-95
2022/09/09 01:42:18;;;;;;;;;2.00;1.25;;;;;;;;5968431;23;8784;-96
2022/09/09 01:44:54;;;;;;;;;1.00;1.00;;;;;;;;5956698;24;8707;-95
2022/09/09 01:47:21;;;;;;;;;1.25;1.25;;;;;;;;5984394;23;8793;-94
2022/09/09 01:49:47;;;;;;;;;2.50;1.75;;;;;;;;5995958;23;8781;-95
2022/09/09 01:52:15;;;;;;;;;1.33;1.00;;;;;;;;6041219;23;8877;-94
2022/09/09 01:54:40;;;;;;;;;0.50;0.50;;;;;;;;6040782;23;8845;-95
2022/09/09 01:57:15;;;;;;;;;3.00;1.00;;;;;;;;6040202;23;8771;-95
2022/09/09 01:59:49;;;;;;;;;1.00;1.00;;;;;;;;6041157;23;8806;-94
2022/09/09 02:02:19;;;;;;;;;3.75;2.00;;;;;;;;6080427;23;8794;-95
2022/09/09 02:04:47;;;;;;;;;1.00;1.00;;;;;;;;6132463;23;8743;-94
2022/09/09 02:07:30;;;;;;;;;2.00;1.75;;;;;;;;6132384;23;8750;-94
2022/09/09 02:10:11;;;;;;;;;2.00;1.00;;;;;;;;6156566;23;8848;-94
2022/09/09 02:12:41;;;;;;;;;1.50;1.50;;;;;;;;6352102;22;8762;-94
2022/09/09 02:15:25;;;;;;;;;1.50;1.00;;;;;;;;6379545;22;8751;-95
2022/09/09 02:17:52;;;;;;;;;1.25;1.25;;;;;;;;6381877;22;8770;-93
2022/09/09 02:20:18;;;;;;;;;2.00;0.00;;;;;;;;6379379;22;8728;-95
2022/09/09 02:22:49;;;;;;;;;1.00;1.00;;;;;;;;6379449;22;8736;-96
2022/09/09 02:25:15;;;;;;;;;1.00;1.00;;;;;;;;6379118;22;8772;-94
2022/09/09 02:27:43;;;;;;;;;2.25;1.75;;;;;;;;6377896;22;8825;-95
2022/09/09 02:30:14;;;;;;;;;2.25;2.00;;;;;;;;6379322;22;8775;-94
2022/09/09 02:32:43;;;;;;;;;2.25;2.00;;;;;;;;6380611;22;8731;-95
2022/09/09 02:35:22;;;;;;;;;0.00;0.00;;;;;;;;6394297;22;8725;-95
2022/09/09 02:37:55;;;;;;;;;3.00;2.00;;;;;;;;6388649;22;8751;-95
2022/09/09 02:40:55;;;;;;;;;1.75;0.25;;;;;;;;6390564;22;8800;-95
2022/09/09 02:44:02;;;;;;;;;3.00;2.25;;;;;;;;6394058;22;8678;-96
2022/09/09 02:46:34;;;;;;;;;2.75;1.75;;;;;;;;6291448;22;8734;-96
2022/09/09 02:49:20;;;;;;;;;0.50;0.50;;;;;;;;6267942;22;8691;-95
2022/09/09 02:51:55;;;;;;;;;2.25;1.00;;;;;;;;6293413;22;9892;-95
2022/09/09 02:54:26;;;;;;;;;1.00;1.00;;;;;;;;6283025;22;8758;-95
2022/09/09 02:56:54;;;;;;;;;0.00;0.00;;;;;;;;6284337;22;8839;-95
2022/09/09 02:59:19;;;;;;;;;3.00;2.00;;;;;;;;6283245;22;8787;-95
2022/09/09 03:01:50;;;;;;;;;2.00;1.00;;;;;;;;6258121;22;9508;-95
2022/09/09 03:04:18;;;;;;;;;4.00;1.50;;;;;;;;6257719;22;8790;-95
2022/09/09 03:06:44;;;;;;;;;1.25;1.25;;;;;;;;6258670;22;8833;-94
2022/09/09 03:09:10;;;;;;;;;2.00;2.00;;;;;;;;6258245;22;8754;-95
2022/09/09 03:11:48;;;;;;;;;;;;;;;;;;;;;
2022/09/09 03:14:16;;;;;;;;;4.00;1.00;;;;;;;;6270917;22;36273;-95
2022/09/09 03:16:52;;;;;;;;;;;;;;;;;;;;;
2022/09/09 03:19:54;;;;;;;;;;;;;;;;;;;;;
2022/09/09 03:22:22;;;;;;;;;2.00;2.00;;;;;;;;6290073;22;34920;-94
2022/09/09 03:24:55;;;;;;;;;1.00;1.00;;;;;;;;6380518;22;8737;-96
2022/09/09 03:27:23;;;;;;;;;3.00;3.00;;;;;;;;6383745;22;8750;-94
2022/09/09 03:30:31;;;;;;;;;3.00;1.00;;;;;;;;6383934;22;9637;-96
2022/09/09 03:36:07;;;;;;;;;2.50;1.25;;;;;;;;6283407;22;8920;-95
2022/09/09 03:42:12;;;;;;;;;2.25;2.25;;;;;;;;6220589;23;8691;-94
2022/09/09 03:45:00;;;;;;;;;2.50;1.00;;;;;;;;6107414;23;8799;-95
2022/09/09 03:47:28;;;;;;;;;2.50;1.50;;;;;;;;6132360;23;8697;-96
2022/09/09 03:53:05;;;;;;;;;1.50;1.00;;;;;;;;6132528;23;8776;-94
2022/09/09 03:59:07;;;;;;;;;;;;;;;;;;;;;
2022/09/09 04:04:59;;;;;;;;;4.75;2.75;;;;;;;;5904640;24;9576;-95
2022/09/09 04:10:28;;;;;;;;;2.75;2.75;;;;;;;;5873236;24;8782;-95
2022/09/09 04:13:03;;;;;;;;;2.00;2.00;;;;;;;;5883067;24;8770;-95
2022/09/09 04:15:57;;;;;;;;;5.50;1.50;;;;;;;;5886583;24;8725;-94
2022/09/09 04:18:42;;;;;;;;;0.25;0.25;;;;;;;;5886157;24;8901;-95
2022/09/09 04:21:27;;;;;;;;;1.50;1.25;;;;;;;;5894566;23;8706;-95
2022/09/09 04:24:32;;;;;;;;;;;;;;;;;;;;;
2022/09/09 04:30:07;;;;;;;;;4.00;3.00;;;;;;;;5779711;24;8775;-94
2022/09/09 04:32:58;;;;;;;;;2.25;2.25;;;;;;;;5837067;24;8815;-95
2022/09/09 04:35:37;;;;;;;;;1.25;1.25;;;;;;;;5938565;24;8825;-95
2022/09/09 04:38:41;;;;;;;;;;;;;;;;;;;;;
2022/09/09 04:41:35;;;;;;;;;5.00;2.00;;;;;;;;6005172;23;36167;-95
2022/09/09 04:44:03;;;;;;;;;2.75;2.75;;;;;;;;5991248;23;8836;-95
2022/09/09 04:49:52;;;;;;;;;2.00;0.00;;;;;;;;6068177;23;8772;-96
2022/09/09 04:55:26;;;;;;;;;3.00;2.75;;;;;;;;6061360;23;8833;-94
2022/09/09 04:58:23;;;;;;;;;;;;;;;;;;;;;
2022/09/09 05:00:51;;;;;;;;;3.50;2.00;;;;;;;;6074089;23;35795;-93
2022/09/09 05:03:26;;;;;;;;;3.25;2.25;;;;;;;;6051314;23;8725;-94
2022/09/09 05:06:13;;;;;;;;;3.75;2.50;;;;;;;;6050468;23;8766;-95
2022/09/09 05:09:07;;;;;;;;;;;;;;;;;;;;;
2022/09/09 05:11:32;;;;;;;;;3.00;3.00;;;;;;;;6131307;23;8801;-94
2022/09/09 05:14:01;;;;;;;;;2.00;1.00;;;;;;;;6108878;23;8778;-95
2022/09/09 05:16:29;;;;;;;;;3.75;2.75;;;;;;;;6108725;23;8744;-94
2022/09/09 05:19:03;;;;;;;;;4.50;2.00;;;;;;;;6109237;23;8750;-93
2022/09/09 05:21:39;;;;;;;;;2.75;2.50;;;;;;;;6108397;23;8914;-94
2022/09/09 05:24:18;;;;;;;;;3.50;1.75;;;;;;;;6110145;23;8941;-95
2022/09/09 05:26:46;;;;;;;;;2.00;2.00;;;;;;;;6107694;23;9678;-95
2022/09/09 05:29:19;;;;;;;;;4.25;1.25;;;;;;;;6152706;23;8801;-95
2022/09/09 05:32:16;;;;;;;;;3.00;2.00;;;;;;;;6247767;22;8791;-96
2022/09/09 05:34:44;;;;;;;;;2.00;2.00;;;;;;;;6359681;22;8822;-95
2022/09/09 05:37:13;;;;;;;;;3.50;3.00;;;;;;;;6385114;22;8729;-95
2022/09/09 05:39:41;;;;;;;;;3.00;3.00;;;;;;;;6384213;22;8725;-95
2022/09/09 05:42:27;;;;;;;;;2.50;2.00;;;;;;;;6383964;22;8757;-95
2022/09/09 05:44:54;;;;;;;;;4.00;3.75;;;;;;;;6373626;22;9641;-95
2022/09/09 05:47:22;;;;;;;;;2.00;2.00;;;;;;;;6385444;22;8757;-95
2022/09/09 05:49:49;;;;;;;;;4.00;2.00;;;;;;;;6388825;22;8694;-94
2022/09/09 05:52:14;;;;;;;;;3.25;1.75;;;;;;;;6395110;22;8749;-95
2022/09/09 05:54:59;;;;;;;;;4.33;2.33;;;;;;;;6394918;22;8789;-95
2022/09/09 05:57:25;;;;;;;;;2.00;2.00;;;;;;;;6393636;22;8709;-94
2022/09/09 06:00:08;;;;;;;;;3.33;3.00;;;;;;;;6394409;22;8678;-95
2022/09/09 06:02:40;;;;;;;;;2.00;2.00;;;;;;;;6394976;22;11452;-94
2022/09/09 06:05:11;;;;;;;;;3.25;1.00;;;;;;;;6394572;22;8788;-95
2022/09/09 06:07:59;;;;;;;;;3.00;2.75;;;;;;;;6394843;22;8686;-94
2022/09/09 06:10:30;;;;;;;;;2.00;2.00;;;;;;;;6292257;22;8762;-95
2022/09/09 06:12:55;;;;;;;;;2.25;2.25;;;;;;;;6259276;22;8758;-94
2022/09/09 06:15:23;;;;;;;;;2.33;2.33;;;;;;;;6258221;22;8786;-95
2022/09/09 06:18:00;;;;;;;;;4.25;2.00;;;;;;;;6258706;22;8766;-94
2022/09/09 06:20:34;;;;;;;;;2.00;2.00;;;;;;;;6258684;22;8832;-95
2022/09/09 06:23:31;;;;;;;;;;;;;;;;;;;;;
2022/09/09 06:25:51;;;;;;;;;1.75;1.75;;;;;;;;6279787;22;8874;-92
2022/09/09 06:28:17;;;;;;;;;3.33;2.00;;;;;;;;6258254;22;8762;-92
2022/09/09 06:30:42;;;;;;;;;2.00;1.67;;;;;;;;6284999;22;8880;-95
2022/09/09 06:33:09;;;;;;;;;2.00;2.00;;;;;;;;6259097;22;8754;-91
2022/09/09 06:35:34;;;;;;;;;2.75;2.00;;;;;;;;6283108;22;8750;-92
2022/09/09 06:37:59;;;;;;;;;3.00;2.00;;;;;;;;6257667;22;8762;-94
2022/09/09 06:40:24;;;;;;;;;2.00;2.00;;;;;;;;6257932;22;8746;-95
2022/09/09 06:42:50;;;;;;;;;2.00;2.00;;;;;;;;6257619;22;8812;-94
2022/09/09 06:45:15;;;;;;;;;2.67;1.67;;;;;;;;6258717;22;9515;-94
2022/09/09 06:47:41;;;;;;;;;3.00;2.00;;;;;;;;6332205;22;8730;-94
2022/09/09 06:50:07;;;;;;;;;2.33;2.33;;;;;;;;6386156;22;8780;-95
2022/09/09 06:52:32;;;;;;;;;4.75;2.25;;;;;;;;6384623;22;8734;-95
2022/09/09 06:54:58;;;;;;;;;2.67;1.00;;;;;;;;6384868;22;8855;-95
2022/09/09 06:57:23;;;;;;;;;5.00;1.25;;;;;;;;6383479;22;8741;-95
2022/09/09 06:59:49;;;;;;;;;2.00;2.00;;;;;;;;6384357;22;8742;-94
2022/09/09 07:02:14;;;;;;;;;2.00;0.67;;;;;;;;6384563;22;8750;-95
2022/09/09 07:04:39;;;;;;;;;0.67;0.67;;;;;;;;6385425;22;8875;-96
2022/09/09 07:07:04;;;;;;;;;1.00;1.00;;;;;;;;6384911;22;8750;-95
2022/09/09 07:09:31;;;;;;;;;1.00;1.00;;;;;;;;6383622;22;8879;-90
2022/09/09 07:11:58;;;;;;;;;1.50;1.50;;;;;;;;6384699;22;8734;-95
2022/09/09 07:14:23;;;;;;;;;2.50;1.00;;;;;;;;6384198;22;8799;-95
2022/09/09 07:16:48;;;;;;;;;5.00;2.33;;;;;;;;6383655;22;8754;-94
2022/09/09 07:19:14;;;;;;;;;2.00;2.00;;;;;;;;6384799;22;8785;-95
2022/09/09 07:21:40;;;;;;;;;3.33;1.00;;;;;;;;6385725;22;8832;-95
2022/09/09 07:24:07;;;;;;;;;1.67;1.00;;;;;;;;6385455;22;10839;-95
2022/09/09 07:26:32;;;;;;;;;2.00;1.00;;;;;;;;6387135;22;8686;-94
2022/09/09 07:28:58;;;;;;;;;1.00;1.00;;;;;;;;6394955;22;8761;-95
2022/09/09 07:31:25;;;;;;;;;2.00;2.00;;;;;;;;6394529;22;8847;-94
2022/09/09 07:33:51;;;;;;;;;5.25;1.75;;;;;;;;6394930;22;8662;-95
2022/09/09 07:36:17;;;;;;;;;3.67;2.67;;;;;;;;6394446;22;8775;-95
2022/09/09 07:38:47;;;;;;;;;2.00;0.50;;;;;;;;6393684;22;8921;-95
2022/09/09 07:41:17;;;;;;;;;2.00;2.00;;;;;;;;6392178;22;8749;-94
2022/09/09 07:43:42;;;;;;;;;2.75;1.75;;;;;;;;6393612;22;8844;-95
2022/09/09 07:46:08;;;;;;;;;2.00;2.00;;;;;;;;6391220;22;8791;-94
2022/09/09 07:48:35;;;;;;;;;2.33;1.67;;;;;;;;6417607;22;8741;-94
2022/09/09 07:51:23;;;;;;;;;1.50;1.50;;;;;;;;6413334;22;11386;-93
2022/09/09 07:53:51;;;;;;;;;2.25;2.25;;;;;;;;6371252;22;8746;-94
2022/09/09 07:56:17;;;;;;;;;1.00;1.00;;;;;;;;6412452;22;8722;-95
2022/09/09 07:58:44;;;;;;;;;4.25;2.25;;;;;;;;6411446;22;8760;-89
2022/09/09 08:01:11;;;;;;;;;3.25;2.00;;;;;;;;6382222;22;9515;-88
2022/09/09 08:03:37;;;;;;;;;2.75;2.50;;;;;;;;6382234;22;9503;-86
2022/09/09 08:06:03;;;;;;;;;3.00;2.00;;;;;;;;6375389;22;8757;-85
2022/09/09 08:08:28;;;;;;;;;5.50;2.00;;;;;;;;6410371;22;8734;-86
2022/09/09 08:10:54;;;;;;;;;2.00;1.00;;;;;;;;6409063;22;8789;-87
2022/09/09 08:13:19;;;;;;;;;2.00;0.00;;;;;;;;6408535;22;8750;-85
2022/09/09 08:15:45;;;;;;;;;3.67;2.00;;;;;;;;6410173;22;8742;-85
2022/09/09 08:18:10;;;;;;;;;1.67;1.67;;;;;;;;6409145;22;8907;-86
2022/09/09 08:20:36;;;;;;;;;1.00;1.00;;;;;;;;6380093;22;8734;-86
2022/09/09 08:23:01;;;;;;;;;1.67;1.67;;;;;;;;6410020;22;8726;-86
2022/09/09 08:25:26;;;;;;;;;2.00;2.00;;;;;;;;6380039;22;8787;-86
2022/09/09 08:27:52;;;;;;;;;1.67;1.67;;;;;;;;6408244;22;8729;-86
2022/09/09 08:30:17;;;;;;;;;1.75;1.00;;;;;;;;6380925;22;8797;-86
2022/09/09 08:32:43;;;;;;;;;1.00;1.00;;;;;;;;6410138;22;8762;-86
2022/09/09 08:35:08;;;;;;;;;3.00;2.33;;;;;;;;6378747;22;8858;-86
2022/09/09 08:37:33;;;;;;;;;3.00;1.00;;;;;;;;6377563;22;9486;-86
2022/09/09 08:39:58;;;;;;;;;3.33;2.33;;;;;;;;6380446;22;8741;-87
2022/09/09 08:42:29;;;;;;;;;3.00;2.00;;;;;;;;6378160;22;8734;-87
2022/09/09 08:45:13;;;;;;;;;1.50;1.25;;;;;;;;6381110;22;8813;-86
2022/09/09 08:47:39;;;;;;;;;1.75;0.75;;;;;;;;6408484;22;8718;-86
2022/09/09 08:50:24;;;;;;;;;2.00;1.00;;;;;;;;6381141;22;8776;-86
2022/09/09 08:52:56;;;;;;;;;1.25;0.25;;;;;;;;6381557;22;8722;-87
2022/09/09 08:55:21;;;;;;;;;1.25;1.00;;;;;;;;6408941;22;8706;-86
2022/09/09 08:57:48;;;;;;;;;3.00;2.00;;;;;;;;6378038;22;8753;-85
2022/09/09 09:00:13;;;;;;;;;1.00;1.00;;;;;;;;6410815;22;8746;-86
2022/09/09 09:02:46;;;;;;;;;1.00;1.00;;;;;;;;6411344;22;8835;-86
2022/09/09 09:05:29;;;;;;;;;3.00;2.00;;;;;;;;6387362;22;8796;-87
2022/09/09 09:08:13;;;;;;;;;1.75;1.75;;;;;;;;6389121;22;8710;-85
2022/09/09 09:10:39;;;;;;;;;1.00;0.75;;;;;;;;6413647;22;8856;-85
2022/09/09 09:13:07;;;;;;;;;0.67;0.33;;;;;;;;6415548;22;8742;-86
2022/09/09 09:15:36;;;;;;;;;3.00;1.00;;;;;;;;6419830;22;8678;-86
2022/09/09 09:18:01;;;;;;;;;1.00;1.00;;;;;;;;6390838;22;8706;-88
2022/09/09 09:20:32;;;;;;;;;3.67;1.67;;;;;;;;6390823;22;8714;-86
2022/09/09 09:23:00;;;;;;;;;0.75;0.00;;;;;;;;6389890;22;8718;-88
2022/09/09 09:25:35;;;;;;;;;2.00;0.00;;;;;;;;6381601;22;8722;-86
2022/09/09 09:28:05;;;;;;;;;1.00;1.00;;;;;;;;6409488;22;8714;-86
2022/09/09 09:30:39;;;;;;;;;1.75;1.75;;;;;;;;6409416;22;8816;-85
2022/09/09 09:33:22;;;;;;;;;1.25;0.25;;;;;;;;6380878;22;9474;-86
2022/09/09 09:35:48;;;;;;;;;2.00;2.00;;;;;;;;6380428;22;8774;-89
2022/09/09 09:38:17;;;;;;;;;3.25;0.75;;;;;;;;6381057;22;8822;-86
2022/09/09 09:40:50;;;;;;;;;0.00;0.00;;;;;;;;6409935;22;8718;-85
2022/09/09 09:43:27;;;;;;;;;1.50;0.25;;;;;;;;6382240;22;8710;-86
2022/09/09 09:45:52;;;;;;;;;0.25;0.00;;;;;;;;6410648;22;8714;-87
2022/09/09 09:48:17;;;;;;;;;1.00;1.00;;;;;;;;6382832;22;8811;-86
2022/09/09 09:50:52;;;;;;;;;0.67;0.67;;;;;;;;6411003;22;8749;-86
2022/09/09 09:53:23;;;;;;;;;2.00;1.25;;;;;;;;6382979;22;8742;-87
2022/09/09 09:55:52;;;;;;;;;2.25;2.00;;;;;;;;6409615;22;9914;-85
2022/09/09 09:58:18;;;;;;;;;5.00;2.00;;;;;;;;6411032;22;8702;-86
2022/09/09 10:00:50;;;;;;;;;4.00;0.33;;;;;;;;6382057;22;8768;-86
2022/09/09 10:03:25;;;;;;;;;1.00;1.00;;;;;;;;6382533;22;8718;-86
2022/09/09 10:05:51;;;;;;;;;1.00;1.00;;;;;;;;6382230;22;8729;-86
2022/09/09 10:08:17;;;;;;;;;1.00;1.00;;;;;;;;6382708;22;8742;-85
2022/09/09 10:10:48;;;;;;;;;0.75;0.75;;;;;;;;6409802;22;8772;-86
2022/09/09 10:13:29;;;;;;;;;0.50;0.50;;;;;;;;6411150;22;8807;-86
2022/09/09 10:16:13;;;;;;;;;1.75;1.75;;;;;;;;6381985;22;8732;-85
2022/09/09 10:18:46;;;;;;;;;0.00;0.00;;;;;;;;6382702;22;8783;-87
2022/09/09 10:21:20;;;;;;;;;1.50;0.50;;;;;;;;6385001;22;8768;-88
2022/09/09 10:24:04;;;;;;;;;1.25;1.25;;;;;;;;6393724;22;8729;-92
2022/09/09 10:26:48;;;;;;;;;0.00;0.00;;;;;;;;6390022;22;8819;-92
2022/09/09 10:29:29;;;;;;;;;0.50;0.50;;;;;;;;6395465;22;8741;-96
2022/09/09 10:32:10;;;;;;;;;3.75;2.25;;;;;;;;6401585;22;8690;-96
2022/09/09 10:34:41;;;;;;;;;1.25;1.25;;;;;;;;6397691;22;8768;-95
2022/09/09 10:37:33;;;;;;;;;0.75;0.75;;;;;;;;6394818;22;8758;-95
2022/09/09 10:40:18;;;;;;;;;0.75;0.75;;;;;;;;6401587;22;14691;-94
2022/09/09 10:43:01;;;;;;;;;1.00;1.00;;;;;;;;6434781;22;8752;-96
2022/09/09 10:45:56;;;;;;;;;0.00;0.00;;;;;;;;6402928;22;8734;-96
2022/09/09 10:48:26;;;;;;;;;0.00;0.00;;;;;;;;6299664;22;8691;-96
2022/09/09 10:50:55;;;;;;;;;0.50;0.50;;;;;;;;6273677;22;8760;-95
2022/09/09 10:53:39;;;;;;;;;0.25;0.25;;;;;;;;6275385;22;8691;-94
2022/09/09 10:56:09;;;;;;;;;2.75;2.00;;;;;;;;6277030;22;8707;-87
2022/09/09 10:58:52;;;;;;;;;1.25;1.00;;;;;;;;6284181;22;8735;-89
2022/09/09 11:01:44;;;;;;;;;1.50;1.00;;;;;;;;6280812;22;8770;-87
2022/09/09 11:04:28;;;;;;;;;4.50;2.00;;;;;;;;6164833;23;8848;-91
2022/09/09 11:06:54;;;;;;;;;2.50;0.75;;;;;;;;6161241;23;8743;-84
2022/09/09 11:09:24;;;;;;;;;1.25;0.75;;;;;;;;6159457;23;8739;-84
2022/09/09 11:11:53;;;;;;;;;2.25;1.00;;;;;;;;6158318;23;9607;-84
2022/09/09 11:14:21;;;;;;;;;0.50;0.50;;;;;;;;6159255;23;8743;-84
2022/09/09 11:17:13;;;;;;;;;0.50;0.50;;;;;;;;6160577;23;8769;-84
2022/09/09 11:19:38;;;;;;;;;1.00;1.00;;;;;;;;6157901;23;8743;-85
2022/09/09 11:22:14;;;;;;;;;0.50;0.50;;;;;;;;6160087;23;8790;-85
2022/09/09 11:25:00;;;;;;;;;2.25;0.75;;;;;;;;6200598;22;8748;-86
2022/09/09 11:27:31;;;;;;;;;0.25;0.25;;;;;;;;6247426;22;8765;-88
2022/09/09 11:30:14;;;;;;;;;0.75;0.25;;;;;;;;6250703;22;8768;-84
2022/09/09 11:32:40;;;;;;;;;1.50;0.75;;;;;;;;6224161;22;8753;-85
2022/09/09 11:35:20;;;;;;;;;1.00;0.00;;;;;;;;6250532;22;8764;-86
2022/09/09 11:37:51;;;;;;;;;1.25;0.75;;;;;;;;6223058;22;8832;-85
2022/09/09 11:40:23;;;;;;;;;1.25;0.50;;;;;;;;6258077;22;8733;-85
2022/09/09 11:42:49;;;;;;;;;1.25;0.25;;;;;;;;6380101;22;8726;-86
2022/09/09 11:45:23;;;;;;;;;1.25;0.50;;;;;;;;6410970;22;8746;-86
2022/09/09 11:47:56;;;;;;;;;1.25;1.25;;;;;;;;6384540;22;9772;-85
2022/09/09 11:50:21;;;;;;;;;0.75;0.75;;;;;;;;6411898;22;9403;-85
2022/09/09 11:52:49;;;;;;;;;1.25;0.75;;;;;;;;6381374;22;8726;-85
2022/09/09 11:55:26;;;;;;;;;2.25;1.75;;;;;;;;6382176;22;9541;-85
2022/09/09 11:58:00;;;;;;;;;0.75;0.75;;;;;;;;6412485;22;8733;-85
2022/09/09 12:00:45;;;;;;;;;1.50;1.50;;;;;;;;6381181;22;8963;-86
2022/09/09 12:03:31;;;;;;;;;3.00;2.00;;;;;;;;6380379;22;8741;-84
2022/09/09 12:05:57;;;;;;;;;2.00;1.00;;;;;;;;6409674;22;8714;-87
2022/09/09 12:08:27;;;;;;;;;0.67;0.67;;;;;;;;6382337;22;9601;-87
2022/09/09 12:10:53;;;;;;;;;2.00;1.00;;;;;;;;6379837;22;9532;-86
2022/09/09 12:13:23;;;;;;;;;0.50;0.50;;;;;;;;6381723;22;8746;-86
2022/09/09 12:15:49;;;;;;;;;1.00;1.00;;;;;;;;6409218;22;8765;-85
2022/09/09 12:18:22;;;;;;;;;4.25;2.25;;;;;;;;6382200;22;8750;-86
2022/09/09 12:21:10;;;;;;;;;2.00;1.00;;;;;;;;6381033;22;9484;-86
2022/09/09 12:23:52;;;;;;;;;0.75;0.75;;;;;;;;6280697;22;8730;-85
2022/09/09 12:26:46;;;;;;;;;1.00;1.00;;;;;;;;6253202;22;9218;-85
2022/09/09 12:29:20;;;;;;;;;2.50;0.75;;;;;;;;6261948;22;8754;-86
2022/09/09 12:31:49;;;;;;;;;3.00;2.00;;;;;;;;6283068;22;8581;-85
2022/09/09 12:34:16;;;;;;;;;0.25;0.25;;;;;;;;6257600;22;8747;-86
2022/09/09 12:36:44;;;;;;;;;2.00;2.00;;;;;;;;6281405;22;8774;-86
2022/09/09 12:39:15;;;;;;;;;0.75;0.75;;;;;;;;6253621;22;8785;-87
2022/09/09 12:41:40;;;;;;;;;4.00;2.00;;;;;;;;6278187;22;8812;-86
2022/09/09 12:44:06;;;;;;;;;2.33;1.33;;;;;;;;6253877;22;8734;-85
2022/09/09 12:46:44;;;;;;;;;1.75;1.75;;;;;;;;6252937;22;8734;-86
2022/09/09 12:49:28;;;;;;;;;1.25;1.25;;;;;;;;6250451;22;8765;-87
2022/09/09 12:51:53;;;;;;;;;3.50;0.00;;;;;;;;6278474;22;8965;-86
2022/09/09 12:54:19;;;;;;;;;4.00;1.67;;;;;;;;6254385;22;8782;-85
2022/09/09 12:56:48;;;;;;;;;3.33;2.33;;;;;;;;6279640;22;8856;-84
2022/09/09 12:59:26;;;;;;;;;1.75;0.75;;;;;;;;6278747;22;8754;-84
2022/09/09 13:01:55;;;;;;;;;4.25;1.25;;;;;;;;6408887;22;9447;-86
2022/09/09 13:04:22;;;;;;;;;2.50;0.75;;;;;;;;6410109;22;8752;-86
2022/09/09 13:06:47;;;;;;;;;3.75;2.50;;;;;;;;6380947;22;8734;-84
2022/09/09 13:09:12;;;;;;;;;1.33;1.33;;;;;;;;6408611;22;9552;-85
2022/09/09 13:11:42;;;;;;;;;2.00;2.00;;;;;;;;6408551;22;8868;-85
2022/09/09 13:14:18;;;;;;;;;1.00;1.00;;;;;;;;6380354;22;8722;-84
2022/09/09 13:16:43;;;;;;;;;3.75;2.00;;;;;;;;6411521;22;9502;-84
2022/09/09 13:19:09;;;;;;;;;2.00;2.00;;;;;;;;6411323;22;8741;-88
2022/09/09 13:21:38;;;;;;;;;2.00;2.00;;;;;;;;6411638;22;9775;-88
2022/09/09 13:24:24;;;;;;;;;2.25;2.25;;;;;;;;6410637;22;8740;-90
2022/09/09 13:26:56;;;;;;;;;2.50;2.50;;;;;;;;6380602;22;8903;-88
2022/09/09 13:29:22;;;;;;;;;2.25;2.00;;;;;;;;6378012;22;8812;-91
2022/09/09 13:31:47;;;;;;;;;2.33;2.00;;;;;;;;6410824;22;9479;-87
2022/09/09 13:34:33;;;;;;;;;1.67;1.67;;;;;;;;6411463;22;8752;-90
2022/09/09 13:37:20;;;;;;;;;0.75;0.75;;;;;;;;6409131;22;8742;-88
2022/09/09 13:39:52;;;;;;;;;0.75;0.75;;;;;;;;6382745;22;8745;-89
2022/09/09 13:42:27;;;;;;;;;1.50;1.50;;;;;;;;6411141;22;8849;-90
2022/09/09 13:44:53;;;;;;;;;2.75;1.75;;;;;;;;6385350;22;8855;-90
2022/09/09 13:47:19;;;;;;;;;2.00;2.00;;;;;;;;6411327;22;8738;-93
2022/09/09 13:49:45;;;;;;;;;4.75;2.50;;;;;;;;6414486;22;8761;-91
2022/09/09 13:52:12;;;;;;;;;0.67;0.33;;;;;;;;6390113;22;8815;-90
2022/09/09 13:54:38;;;;;;;;;2.00;2.00;;;;;;;;6421220;22;8722;-92
2022/09/09 13:57:04;;;;;;;;;1.33;1.33;;;;;;;;6391764;22;8761;-90
2022/09/09 13:59:30;;;;;;;;;2.00;1.00;;;;;;;;6420624;22;8726;-91
2022/09/09 14:01:55;;;;;;;;;1.00;1.00;;;;;;;;6419739;22;8741;-90
2022/09/09 14:04:23;;;;;;;;;0.67;0.67;;;;;;;;6393019;22;8762;-91
2022/09/09 14:06:49;;;;;;;;;1.50;1.25;;;;;;;;6393030;22;8709;-90
2022/09/09 14:09:15;;;;;;;;;1.75;1.75;;;;;;;;6393054;22;8674;-92
2022/09/09 14:11:41;;;;;;;;;2.25;2.25;;;;;;;;6392579;22;8864;-91
2022/09/09 14:14:06;;;;;;;;;3.00;1.00;;;;;;;;6416529;22;8761;-91
2022/09/09 14:16:32;;;;;;;;;2.00;0.67;;;;;;;;6412631;22;8742;-89
2022/09/09 14:18:58;;;;;;;;;2.00;2.00;;;;;;;;6414605;22;8762;-94
2022/09/09 14:21:24;;;;;;;;;2.25;1.50;;;;;;;;6412724;22;10565;-91
2022/09/09 14:23:49;;;;;;;;;1.00;0.67;;;;;;;;6378618;22;8765;-91
2022/09/09 14:26:14;;;;;;;;;0.33;0.33;;;;;;;;6381276;22;8818;-89
2022/09/09 14:28:40;;;;;;;;;0.00;0.00;;;;;;;;6411633;22;8800;-90
2022/09/09 14:31:06;;;;;;;;;1.33;1.33;;;;;;;;6413793;22;8769;-88
2022/09/09 14:33:31;;;;;;;;;0.00;0.00;;;;;;;;6412558;22;8734;-91
2022/09/09 14:36:00;;;;;;;;;0.67;0.67;;;;;;;;6407868;22;8778;-91
2022/09/09 14:38:28;;;;;;;;;1.00;1.00;;;;;;;;6411273;22;8811;-94
2022/09/09 14:40:54;;;;;;;;;4.00;1.00;;;;;;;;6411506;22;9562;-91
2022/09/09 14:43:20;;;;;;;;;1.67;1.67;;;;;;;;6384441;22;8753;-93
2022/09/09 14:45:45;;;;;;;;;0.00;0.00;;;;;;;;6383922;22;8722;-92
2022/09/09 14:48:10;;;;;;;;;0.00;0.00;;;;;;;;6413248;22;8738;-90
2022/09/09 14:50:39;;;;;;;;;1.00;1.00;;;;;;;;6381878;22;8749;-90
2022/09/09 14:53:04;;;;;;;;;2.00;1.00;;;;;;;;6382662;22;8730;-89
2022/09/09 14:55:30;;;;;;;;;0.00;0.00;;;;;;;;6410259;22;8753;-90
2022/09/09 14:57:55;;;;;;;;;1.00;1.00;;;;;;;;6411325;22;8754;-90
2022/09/09 15:00:20;;;;;;;;;0.00;0.00;;;;;;;;6380114;22;8800;-89
2022/09/09 15:02:45;;;;;;;;;0.00;0.00;;;;;;;;6378977;22;8776;-89
2022/09/09 15:05:11;;;;;;;;;0.67;0.67;;;;;;;;6380295;22;8769;-89
2022/09/09 15:07:36;;;;;;;;;0.67;0.67;;;;;;;;6408639;22;9532;-89
2022/09/09 15:10:02;;;;;;;;;0.00;0.00;;;;;;;;6409812;22;8765;-89
2022/09/09 15:12:28;;;;;;;;;1.67;1.33;;;;;;;;6407400;22;8754;-89
2022/09/09 15:14:54;;;;;;;;;0.67;0.67;;;;;;;;6410751;22;8834;-89
2022/09/09 15:17:20;;;;;;;;;0.00;0.00;;;;;;;;6409989;22;8726;-89
2022/09/09 15:19:45;;;;;;;;;0.00;0.00;;;;;;;;6409151;22;8856;-90
2022/09/09 15:22:10;;;;;;;;;2.00;0.00;;;;;;;;6411528;22;8780;-89
2022/09/09 15:24:35;;;;;;;;;2.33;0.33;;;;;;;;6412266;22;8741;-89
2022/09/09 15:27:01;;;;;;;;;3.00;0.00;;;;;;;;6408390;22;8753;-89
2022/09/09 15:29:27;;;;;;;;;2.00;1.67;;;;;;;;6418159;22;8768;-90
2022/09/09 15:31:55;;;;;;;;;1.33;0.00;;;;;;;;6390365;22;8749;-90
2022/09/09 15:34:20;;;;;;;;;0.50;0.50;;;;;;;;6415002;22;8709;-89
2022/09/09 15:36:46;;;;;;;;;1.33;0.33;;;;;;;;6417628;22;9487;-90
2022/09/09 15:39:12;;;;;;;;;0.67;0.67;;;;;;;;6389255;22;8765;-90
2022/09/09 15:41:38;;;;;;;;;1.00;1.00;;;;;;;;6390159;22;8773;-90
2022/09/09 15:44:03;;;;;;;;;2.00;2.00;;;;;;;;6417447;22;8746;-89
2022/09/09 15:46:30;;;;;;;;;1.67;1.67;;;;;;;;6391162;22;8769;-91
2022/09/09 15:48:57;;;;;;;;;1.25;0.75;;;;;;;;6417915;22;8730;-91
2022/09/09 15:51:23;;;;;;;;;1.00;1.00;;;;;;;;6381701;22;8754;-90
2022/09/09 15:53:48;;;;;;;;;0.75;0.75;;;;;;;;6381948;22;8741;-91
2022/09/09 15:56:13;;;;;;;;;4.33;2.00;;;;;;;;6379549;22;8788;-91
2022/09/09 15:58:38;;;;;;;;;1.33;0.00;;;;;;;;6380239;22;8858;-91
2022/09/09 16:01:08;;;;;;;;;2.33;1.33;;;;;;;;6378688;22;8774;-91
2022/09/09 16:03:34;;;;;;;;;0.25;0.25;;;;;;;;6381167;22;8738;-91
2022/09/09 16:05:59;;;;;;;;;1.00;1.00;;;;;;;;6409629;22;8780;-91
2022/09/09 16:08:25;;;;;;;;;0.67;0.67;;;;;;;;6382770;22;8860;-91
2022/09/09 16:10:50;;;;;;;;;1.00;1.00;;;;;;;;6380627;22;8801;-91
2022/09/09 16:13:15;;;;;;;;;1.33;1.33;;;;;;;;6409600;22;9444;-91
2022/09/09 16:15:40;;;;;;;;;0.33;0.33;;;;;;;;6381444;22;8761;-91
2022/09/09 16:18:05;;;;;;;;;0.67;0.67;;;;;;;;6381160;22;8869;-91
2022/09/09 16:20:31;;;;;;;;;1.00;1.00;;;;;;;;6381945;22;9487;-91
2022/09/09 16:22:57;;;;;;;;;0.33;0.33;;;;;;;;6381341;22;8746;-90